Time;durP1;ratioP1;P1;durP2;ratioP2;P2;SDS_P1;SDS_P2;PMS_P1;PMS_P2;Temp;Humidity;BMP_temperature;BMP_pressure;BME280_temperature;BME280_humidity;BME280_pressure;Samples;Min_cycle;Max_cycle;Signal;HPM_P1;HPM_P2
2023/07/09 00:00:53;;;;;;;13.68;9.48;;;;;;;23.18;100.00;101556.84;5010748;28;20046;-56
2023/07/09 00:03:21;;;;;;;15.07;9.18;;;;;;;23.19;100.00;101566.56;5016287;28;20139;-57
2023/07/09 00:05:50;;;;;;;13.30;8.95;;;;;;;23.18;100.00;101563.06;5027074;28;20037;-56
2023/07/09 00:08:27;;;;;;;14.15;9.60;;;;;;;23.11;100.00;101565.53;5027005;28;20080;-56
2023/07/09 00:10:56;;;;;;;15.15;9.52;;;;;;;23.07;100.00;101561.50;5021299;28;20045;-56
2023/07/09 00:13:28;;;;;;;15.40;9.75;;;;;;;23.05;100.00;101557.31;5025662;28;20576;-56
2023/07/09 00:16:03;;;;;;;13.30;9.43;;;;;;;23.04;100.00;101561.00;5017077;28;20135;-56
2023/07/09 00:18:32;;;;;;;13.35;9.77;;;;;;;23.06;100.00;101551.78;5025436;28;20060;-56
2023/07/09 00:21:01;;;;;;;13.52;9.38;;;;;;;23.08;100.00;101556.97;5018370;28;20842;-56
2023/07/09 00:23:29;;;;;;;13.60;8.88;;;;;;;23.04;100.00;101566.34;5009275;28;20437;-56
2023/07/09 00:25:58;;;;;;;16.02;9.05;;;;;;;22.99;100.00;101561.50;5012363;28;20054;-57
2023/07/09 00:28:27;;;;;;;15.18;9.85;;;;;;;22.95;100.00;101562.81;5026781;28;20485;-57
2023/07/09 00:30:58;;;;;;;15.10;9.88;;;;;;;22.92;100.00;101564.00;5026461;28;20118;-57
2023/07/09 00:33:31;;;;;;;13.32;9.75;;;;;;;22.91;100.00;101566.84;5011193;28;20038;-57
2023/07/09 00:36:00;;;;;;;14.98;9.65;;;;;;;22.85;100.00;101559.44;5027237;28;20064;-56
2023/07/09 00:38:38;;;;;;;14.02;10.25;;;;;;;22.85;100.00;101559.44;5020032;28;20448;-57
2023/07/09 00:41:23;;;;;;;15.95;10.23;;;;;;;22.84;100.00;101558.59;5025495;28;20037;-56
2023/07/09 00:43:53;;;;;;;15.18;10.30;;;;;;;22.81;100.00;101561.63;5011408;28;20045;-57
2023/07/09 00:47:10;;;;;;;14.75;10.13;;;;;;;22.78;100.00;101559.25;5016333;28;20048;-57
2023/07/09 00:49:46;;;;;;;14.57;9.52;;;;;;;22.82;100.00;101570.50;4985016;28;20752;-56
2023/07/09 00:52:24;;;;;;;16.60;9.40;;;;;;;22.88;100.00;101569.84;5018299;28;20060;-57
2023/07/09 00:54:54;;;;;;;14.45;10.00;;;;;;;22.80;100.00;101570.66;5019154;28;20045;-57
2023/07/09 00:57:26;;;;;;;13.82;9.43;;;;;;;22.71;100.00;101575.13;5014007;28;20033;-58
2023/07/09 01:00:09;;;;;;;14.02;9.20;;;;;;;22.74;100.00;101574.84;5026461;28;20076;-59
2023/07/09 01:02:38;;;;;;;13.55;9.50;;;;;;;22.70;100.00;101573.50;5021891;28;20041;-58
2023/07/09 01:05:11;;;;;;;14.25;9.70;;;;;;;22.69;100.00;101568.28;5024470;28;20377;-58
2023/07/09 01:07:40;;;;;;;13.80;10.13;;;;;;;22.67;100.00;101573.78;5015009;28;20112;-58
2023/07/09 01:10:09;;;;;;;14.15;9.20;;;;;;;22.73;100.00;101572.31;5020320;28;20053;-58
2023/07/09 01:12:37;;;;;;;12.93;10.07;;;;;;;22.72;100.00;101574.16;5010243;28;20042;-58
2023/07/09 01:15:08;;;;;;;15.43;9.68;;;;;;;22.71;100.00;101566.28;5019092;28;20547;-58
2023/07/09 01:17:36;;;;;;;12.65;9.00;;;;;;;22.61;100.00;101571.78;5023140;28;20496;-59
2023/07/09 01:20:09;;;;;;;13.15;9.05;;;;;;;22.59;100.00;101568.41;5011253;28;20049;-58
2023/07/09 01:22:39;;;;;;;13.85;8.60;;;;;;;22.52;100.00;101572.72;5018228;28;20665;-58
2023/07/09 01:25:09;;;;;;;14.57;8.98;;;;;;;22.56;100.00;101568.72;5013999;28;20053;-57
2023/07/09 01:27:39;;;;;;;13.50;9.40;;;;;;;22.49;100.00;101567.69;5024885;28;20056;-59
2023/07/09 01:30:11;;;;;;;13.25;9.23;;;;;;;22.37;100.00;101573.31;5017520;28;20125;-58
2023/07/09 01:32:40;;;;;;;12.57;9.55;;;;;;;22.38;100.00;101566.97;5018677;28;20068;-59
2023/07/09 01:35:11;;;;;;;13.73;9.27;;;;;;;22.30;100.00;101564.22;5009478;28;20061;-57
2023/07/09 01:37:41;;;;;;;13.15;9.30;;;;;;;22.31;100.00;101565.91;5010824;28;20053;-57
2023/07/09 01:40:11;;;;;;;13.52;9.75;;;;;;;22.28;100.00;101566.25;5009638;28;20056;-56
2023/07/09 01:42:59;;;;;;;13.18;9.60;;;;;;;22.24;100.00;101560.34;5008246;28;20045;-57
2023/07/09 01:45:28;;;;;;;14.88;10.60;;;;;;;22.22;100.00;101564.19;5008868;28;20568;-56
2023/07/09 01:47:56;;;;;;;17.20;11.05;;;;;;;22.21;100.00;101566.03;5007917;28;20850;-56
2023/07/09 01:50:26;;;;;;;18.73;11.77;;;;;;;22.16;100.00;101562.16;5009239;28;20053;-56
2023/07/09 01:52:57;;;;;;;15.95;10.32;;;;;;;22.16;100.00;101564.84;5008387;28;20156;-56
2023/07/09 01:55:26;;;;;;;14.43;9.90;;;;;;;22.14;100.00;101561.47;5011221;28;20535;-57
2023/07/09 01:57:54;;;;;;;14.60;10.60;;;;;;;22.17;100.00;101566.50;5009470;28;20776;-57
2023/07/09 02:00:22;;;;;;;14.68;9.88;;;;;;;22.10;100.00;101569.81;5009134;28;20120;-57
2023/07/09 02:02:52;;;;;;;15.73;10.15;;;;;;;22.15;100.00;101568.50;5018490;28;20064;-57
2023/07/09 02:05:21;;;;;;;14.43;9.93;;;;;;;22.03;100.00;101579.50;5008693;28;20445;-57
2023/07/09 02:07:49;;;;;;;15.38;10.52;;;;;;;21.98;100.00;101581.81;5008246;28;20042;-57
2023/07/09 02:10:19;;;;;;;16.30;10.15;;;;;;;21.93;100.00;101584.94;5013605;28;20120;-56
2023/07/09 02:12:48;;;;;;;16.50;10.40;;;;;;;21.87;100.00;101585.56;5015588;28;20128;-57
2023/07/09 02:15:17;;;;;;;14.98;10.10;;;;;;;21.90;100.00;101589.78;5017129;28;20053;-57
2023/07/09 02:17:45;;;;;;;16.67;10.57;;;;;;;21.85;100.00;101578.69;5008437;28;20136;-57
2023/07/09 02:20:15;;;;;;;14.93;10.50;;;;;;;21.94;100.00;101583.94;5026686;28;20045;-57
2023/07/09 02:22:44;;;;;;;14.50;9.68;;;;;;;21.82;100.00;101587.03;5011075;28;20133;-57
2023/07/09 02:25:12;;;;;;;13.68;10.38;;;;;;;21.77;100.00;101583.00;5008509;28;20137;-57
2023/07/09 02:27:42;;;;;;;15.55;10.70;;;;;;;21.73;100.00;101584.31;5020623;28;20042;-57
2023/07/09 02:30:11;;;;;;;14.65;10.23;;;;;;;21.70;100.00;101586.44;5008332;28;20058;-57
2023/07/09 02:32:41;;;;;;;16.00;10.38;;;;;;;21.65;100.00;101581.56;5019628;28;20103;-56
2023/07/09 02:35:09;;;;;;;15.07;10.20;;;;;;;21.64;100.00;101590.59;5011928;28;20714;-57
2023/07/09 02:37:38;;;;;;;14.75;10.25;;;;;;;21.64;100.00;101592.41;5019096;28;20045;-57
2023/07/09 02:40:08;;;;;;;15.20;10.57;;;;;;;21.57;100.00;101592.22;5026109;28;20061;-57
2023/07/09 02:42:37;;;;;;;15.73;10.95;;;;;;;21.55;100.00;101586.97;5013351;28;20108;-56
2023/07/09 02:45:07;;;;;;;17.15;11.27;;;;;;;21.53;100.00;101588.13;5010828;28;20522;-58
2023/07/09 02:47:36;;;;;;;14.10;10.68;;;;;;;21.60;100.00;101594.56;5016736;28;20069;-58
2023/07/09 02:50:05;;;;;;;14.93;10.95;;;;;;;21.61;100.00;101598.94;5011989;28;20077;-58
2023/07/09 02:52:33;;;;;;;16.27;11.43;;;;;;;21.58;100.00;101594.72;5025410;28;20484;-58
2023/07/09 02:55:01;;;;;;;15.73;11.07;;;;;;;21.55;100.00;101599.53;5031328;28;20042;-58
2023/07/09 02:57:29;;;;;;;17.10;10.98;;;;;;;21.45;100.00;101603.09;5026644;28;20037;-58
2023/07/09 02:59:57;;;;;;;17.65;11.80;;;;;;;21.39;100.00;101605.53;5019741;28;20128;-59
2023/07/09 03:02:27;;;;;;;16.00;11.30;;;;;;;21.40;100.00;101605.38;5015140;28;20038;-58
2023/07/09 03:04:55;;;;;;;16.10;11.18;;;;;;;21.34;100.00;101602.50;5028438;28;20651;-58
2023/07/09 03:07:23;;;;;;;16.33;11.15;;;;;;;21.27;100.00;101599.59;5021246;28;20428;-58
2023/07/09 03:09:52;;;;;;;15.88;10.88;;;;;;;21.22;100.00;101602.69;5015149;28;20060;-58
2023/07/09 03:12:20;;;;;;;16.15;11.45;;;;;;;21.23;100.00;101598.22;5015511;28;20049;-58
2023/07/09 03:14:50;;;;;;;15.65;10.48;;;;;;;21.24;100.00;101599.88;5011348;28;20504;-57
2023/07/09 03:17:18;;;;;;;16.23;11.18;;;;;;;21.23;100.00;101598.22;5009739;28;20049;-57
2023/07/09 03:19:47;;;;;;;15.07;11.52;;;;;;;21.27;100.00;101599.59;5022243;28;20042;-56
2023/07/09 03:22:16;;;;;;;15.80;11.55;;;;;;;21.16;100.00;101599.78;5014499;28;20136;-56
2023/07/09 03:24:44;;;;;;;16.95;11.25;;;;;;;21.22;100.00;101602.69;5019725;28;20406;-58
2023/07/09 03:27:13;;;;;;;14.30;10.30;;;;;;;21.20;100.00;101604.69;5019848;28;20052;-58
2023/07/09 03:29:41;;;;;;;15.90;10.95;;;;;;;21.15;100.00;101603.47;5011928;28;20061;-59
2023/07/09 03:32:09;;;;;;;15.27;11.73;;;;;;;21.06;100.00;101600.69;5024461;28;20105;-58
2023/07/09 03:34:37;;;;;;;16.02;10.93;;;;;;;21.11;100.00;101600.25;5011184;28;20052;-58
2023/07/09 03:37:07;;;;;;;19.50;11.85;;;;;;;21.09;100.00;101597.75;5010780;28;20129;-56
2023/07/09 03:39:35;;;;;;;15.23;11.43;;;;;;;21.00;100.00;101595.13;5010840;28;20073;-57
2023/07/09 03:42:04;;;;;;;22.40;13.13;;;;;;;20.92;100.00;101598.53;5011111;28;20104;-57
2023/07/09 03:44:32;;;;;;;17.10;11.90;;;;;;;20.97;100.00;101596.28;5012247;28;20402;-57
2023/07/09 03:47:00;;;;;;;19.45;12.23;;;;;;;20.94;100.00;101594.75;5008844;28;20116;-57
2023/07/09 03:49:28;;;;;;;16.65;12.57;;;;;;;21.00;100.00;101595.97;5010570;28;20488;-57
2023/07/09 03:51:56;;;;;;;18.52;12.02;;;;;;;20.95;100.00;101603.59;5010732;28;20131;-57
2023/07/09 03:54:26;;;;;;;19.10;12.38;;;;;;;20.93;100.00;101598.41;5011370;28;20045;-57
2023/07/09 03:56:54;;;;;;;14.60;11.73;;;;;;;20.98;100.00;101603.28;5011542;28;20437;-57
2023/07/09 03:59:23;;;;;;;17.75;12.25;;;;;;;20.98;100.00;101599.78;5009441;28;20466;-57
2023/07/09 04:01:51;;;;;;;16.70;11.82;;;;;;;21.00;100.00;101608.50;5009824;28;20547;-57
2023/07/09 04:04:20;;;;;;;18.95;12.13;;;;;;;21.03;100.00;101605.53;5021432;28;20500;-57
2023/07/09 04:06:48;;;;;;;15.48;11.60;;;;;;;20.95;100.00;101611.59;5028593;28;20140;-57
2023/07/09 04:09:17;;;;;;;16.60;12.05;;;;;;;20.96;100.00;101613.28;5020898;28;20692;-56
2023/07/09 04:11:46;;;;;;;17.42;12.50;;;;;;;21.01;100.00;101602.13;5026694;28;20042;-56
2023/07/09 04:14:14;;;;;;;18.60;12.20;;;;;;;21.00;100.00;101597.81;5015521;28;20062;-56
2023/07/09 04:16:45;;;;;;;19.20;12.40;;;;;;;20.99;100.00;101596.94;5027350;28;20053;-57
2023/07/09 04:19:13;;;;;;;18.55;12.25;;;;;;;21.05;100.00;101607.06;5018040;28;20049;-57
2023/07/09 04:21:44;;;;;;;14.68;12.10;;;;;;;20.98;100.00;101600.59;5026693;28;20065;-58
2023/07/09 04:24:12;;;;;;;17.08;12.27;;;;;;;20.94;100.00;101589.38;5017898;28;20054;-57
2023/07/09 04:26:40;;;;;;;15.18;11.15;;;;;;;20.95;100.00;101592.88;5009162;28;20081;-57
2023/07/09 04:29:12;;;;;;;14.77;11.82;;;;;;;21.00;100.00;101598.63;5018890;28;20056;-58
2023/07/09 04:31:42;;;;;;;18.63;13.95;;;;;;;21.02;100.00;101601.97;5025433;28;20041;-59
2023/07/09 04:34:11;;;;;;;18.45;13.13;;;;;;;21.04;100.00;101599.19;5018624;28;20390;-59
2023/07/09 04:36:39;;;;;;;20.13;12.68;;;;;;;21.07;100.00;101593.53;5010310;28;20728;-58
2023/07/09 04:39:07;;;;;;;19.38;13.32;;;;;;;21.10;100.00;101596.75;5014259;28;20501;-58
2023/07/09 04:41:35;;;;;;;18.50;13.23;;;;;;;21.17;100.00;101593.47;5018906;28;20530;-59
2023/07/09 04:44:03;;;;;;;17.05;13.13;;;;;;;21.17;100.00;101591.63;5022781;28;20056;-59
2023/07/09 04:46:33;;;;;;;18.70;12.75;;;;;;;21.19;100.00;101602.19;5012122;28;20108;-60
2023/07/09 04:49:01;;;;;;;17.63;13.10;;;;;;;21.20;100.00;101603.84;5017606;28;20107;-59
2023/07/09 04:51:29;;;;;;;20.15;14.05;;;;;;;21.19;100.00;101608.38;5026783;28;20041;-59
2023/07/09 04:53:57;;;;;;;18.55;12.63;;;;;;;21.27;100.00;101607.63;5017594;28;20041;-59
2023/07/09 04:56:26;;;;;;;17.75;13.23;;;;;;;21.32;100.00;101613.31;5024409;28;20504;-59
2023/07/09 04:58:54;;;;;;;21.08;13.20;;;;;;;21.31;100.00;101609.00;5010401;28;20057;-57
2023/07/09 05:01:22;;;;;;;17.10;12.90;;;;;;;21.34;100.00;101605.19;5012007;28;20076;-57
2023/07/09 05:03:51;;;;;;;19.77;13.25;;;;;;;21.34;100.00;101606.00;5019422;28;20041;-57
2023/07/09 05:06:20;;;;;;;18.70;12.85;;;;;;;21.37;100.00;101611.03;5020959;28;20073;-58
2023/07/09 05:08:48;;;;;;;17.92;12.43;;;;;;;21.42;100.00;101608.75;5015544;28;20049;-57
2023/07/09 05:11:19;;;;;;;20.10;13.27;;;;;;;21.48;100.00;101611.81;5015585;28;20511;-57
2023/07/09 05:13:47;;;;;;;16.38;12.40;;;;;;;21.50;100.00;101620.53;5021949;28;20121;-58
2023/07/09 05:16:15;;;;;;;19.55;13.27;;;;;;;21.54;100.00;101608.53;5009020;28;20516;-57
2023/07/09 05:18:43;;;;;;;20.27;13.73;;;;;;;21.60;100.00;101615.97;5008722;28;20049;-57
2023/07/09 05:21:13;;;;;;;20.13;13.50;;;;;;;21.70;100.00;101615.88;5009298;28;20052;-57
2023/07/09 05:23:41;;;;;;;18.70;12.63;;;;;;;21.72;100.00;101617.41;5009107;28;20556;-57
2023/07/09 05:26:10;;;;;;;18.77;12.88;;;;;;;21.76;100.00;101613.44;5009952;28;20567;-57
2023/07/09 05:28:38;;;;;;;17.10;12.38;;;;;;;21.85;100.00;101622.34;5008931;28;20046;-58
2023/07/09 05:31:07;;;;;;;18.20;13.68;;;;;;;21.93;100.00;101624.25;5008778;28;20105;-57
2023/07/09 05:33:35;;;;;;;16.58;12.13;;;;;;;22.01;100.00;101624.31;5008166;28;20433;-57
2023/07/09 05:36:03;;;;;;;21.90;12.90;;;;;;;22.07;100.00;101622.84;5008972;28;20112;-57
2023/07/09 05:38:33;;;;;;;16.67;12.50;;;;;;;22.20;100.00;101623.28;5008557;28;20077;-57
2023/07/09 05:41:03;;;;;;;16.05;11.50;;;;;;;22.30;100.00;101620.50;5009356;28;20100;-57
2023/07/09 05:43:31;;;;;;;15.68;11.02;;;;;;;22.38;100.00;101619.72;5008493;28;20117;-57
2023/07/09 05:46:02;;;;;;;16.45;11.80;;;;;;;22.49;100.00;101621.31;5009048;28;20501;-59
2023/07/09 05:48:31;;;;;;;17.02;11.43;;;;;;;22.56;100.00;101625.00;5008480;28;20049;-58
2023/07/09 05:50:59;;;;;;;20.55;12.07;;;;;;;22.68;100.00;101621.03;5008994;28;20385;-58
2023/07/09 05:53:31;;;;;;;15.30;10.68;;;;;;;22.83;100.00;101626.63;5008696;28;20042;-59
2023/07/09 05:56:01;;;;;;;15.82;10.45;;;;;;;23.05;100.00;101621.69;5008865;28;20121;-58
2023/07/09 05:58:30;;;;;;;17.65;11.20;;;;;;;23.26;100.00;101623.91;5008007;28;20544;-59
2023/07/09 06:00:58;;;;;;;15.32;10.80;;;;;;;23.32;100.00;101625.13;5008264;28;20100;-58
2023/07/09 06:03:28;;;;;;;13.90;9.98;;;;;;;23.31;100.00;101631.50;5021907;28;20477;-59
2023/07/09 06:05:58;;;;;;;17.40;10.80;;;;;;;23.42;100.00;101633.84;5022439;28;20076;-59
2023/07/09 06:08:26;;;;;;;17.17;10.32;;;;;;;23.46;100.00;101632.50;5018697;28;20061;-58
2023/07/09 06:10:56;;;;;;;14.18;9.77;;;;;;;23.51;100.00;101632.88;5018751;28;20548;-58
2023/07/09 06:13:26;;;;;;;15.02;10.82;;;;;;;23.61;100.00;101630.00;5016903;28;20046;-59
2023/07/09 06:15:56;;;;;;;16.75;11.15;;;;;;;23.77;100.00;101627.31;5013234;28;20038;-58
2023/07/09 06:18:28;;;;;;;15.05;10.50;;;;;;;23.90;100.00;101631.38;5008434;28;20536;-58
2023/07/09 06:20:59;;;;;;;16.08;9.63;;;;;;;23.99;100.00;101635.75;5021696;28;20049;-59
2023/07/09 06:23:28;;;;;;;16.50;10.20;;;;;;;24.13;100.00;101640.44;5027819;28;20038;-58
2023/07/09 06:25:56;;;;;;;17.63;10.13;;;;;;;24.19;100.00;101638.91;5029294;28;20115;-59
2023/07/09 06:28:28;;;;;;;15.55;9.88;;;;;;;24.30;100.00;101643.91;5017024;28;20096;-59
2023/07/09 06:30:58;;;;;;;14.88;10.57;;;;;;;24.42;100.00;101649.78;5028981;28;20052;-59
2023/07/09 06:33:27;;;;;;;13.20;8.88;;;;;;;24.58;100.00;101648.03;5016777;28;20432;-59
2023/07/09 06:35:57;;;;;;;15.13;9.02;;;;;;;24.76;100.00;101656.75;5020072;28;20042;-59
2023/07/09 06:38:26;;;;;;;16.35;9.60;;;;;;;24.88;100.00;101650.97;5012943;28;20144;-59
2023/07/09 06:40:54;;;;;;;13.82;10.05;;;;;;;25.08;100.00;101652.22;5019214;28;20041;-59
2023/07/09 06:43:22;;;;;;;19.40;9.55;;;;;;;25.21;100.00;101648.97;5025446;28;20489;-59
2023/07/09 06:45:55;;;;;;;16.52;10.75;;;;;;;25.31;100.00;101654.13;5019371;28;20049;-59
2023/07/09 06:48:24;;;;;;;16.30;10.77;;;;;;;25.42;100.00;101650.22;5012663;28;20496;-59
2023/07/09 06:50:54;;;;;;;14.68;9.38;;;;;;;25.56;100.00;101652.09;5028474;28;20049;-59
2023/07/09 06:53:22;;;;;;;14.85;9.27;;;;;;;25.80;100.00;101659.16;5029025;28;20052;-59
2023/07/09 06:55:52;;;;;;;16.85;9.07;;;;;;;25.92;100.00;101656.03;5024796;28;20108;-59
2023/07/09 06:58:21;;;;;;;17.08;10.35;;;;;;;26.06;100.00;101657.13;5029106;28;20049;-58
2023/07/09 07:00:49;;;;;;;16.90;8.82;;;;;;;26.16;100.00;101657.69;5016984;28;20042;-58
2023/07/09 07:03:19;;;;;;;15.80;9.57;;;;;;;26.38;100.00;101661.34;5017484;28;20515;-58
2023/07/09 07:05:49;;;;;;;16.92;9.43;;;;;;;26.52;100.00;101654.28;5012853;28;20045;-58
2023/07/09 07:08:19;;;;;;;15.40;8.48;;;;;;;26.54;100.00;101652.22;5018405;28;20057;-57
2023/07/09 07:10:49;;;;;;;13.10;8.65;;;;;;;26.68;100.00;101658.63;5019788;28;20072;-57
2023/07/09 07:13:17;;;;;;;14.75;7.90;;;;;;;26.87;100.00;101659.13;5016198;28;20065;-58
2023/07/09 07:15:50;;;;;;;12.48;8.27;;;;;;;27.07;100.00;101651.25;5019054;28;20052;-57
2023/07/09 07:18:19;;;;;;;12.02;8.13;;;;;;;27.21;100.00;101657.63;5016061;28;20505;-58
2023/07/09 07:20:48;;;;;;;16.33;8.75;;;;;;;27.28;100.00;101655.84;5017001;28;20084;-57
2023/07/09 07:23:16;;;;;;;11.80;7.55;;;;;;;27.47;100.00;101662.50;5020946;28;20038;-57
2023/07/09 07:25:46;;;;;;;13.10;8.60;;;;;;;27.55;100.00;101656.16;5013386;28;20472;-58
2023/07/09 07:28:14;;;;;;;13.77;7.93;;;;;;;27.72;100.00;101648.59;5008481;28;20057;-58
2023/07/09 07:30:42;;;;;;;13.85;8.55;;;;;;;27.98;100.00;101642.59;5019223;28;20041;-58
2023/07/09 07:33:11;;;;;;;21.50;11.38;;;;;;;28.22;100.00;101646.72;5028813;28;20062;-58
2023/07/09 07:35:43;;;;;;;12.43;9.07;;;;;;;28.41;100.00;101641.63;5017246;28;20049;-58
2023/07/09 07:38:31;;;;;;;13.95;8.75;;;;;;;28.54;100.00;101636.31;5009557;28;20544;-58
2023/07/09 07:40:59;;;;;;;12.35;8.23;;;;;;;28.71;100.00;101636.81;5013474;28;20060;-58
2023/07/09 07:43:27;;;;;;;10.73;6.70;;;;;;;28.95;100.00;101634.63;5019552;28;20489;-57
2023/07/09 07:45:56;;;;;;;13.98;7.50;;;;;;;29.17;100.00;101629.91;5012795;28;20048;-58
2023/07/09 07:48:24;;;;;;;12.30;8.30;;;;;;;29.40;100.00;101639.56;5010207;28;20096;-58
2023/07/09 07:50:59;;;;;;;14.32;9.25;;;;;;;29.53;100.00;101633.31;5011136;28;20042;-58
2023/07/09 07:53:29;;;;;;;13.80;8.70;;;;;;;29.70;100.00;101634.56;5010591;28;20069;-58
2023/07/09 07:55:57;;;;;;;13.07;9.32;;;;;;;29.84;100.00;101630.78;5011514;28;20508;-58
2023/07/09 07:58:25;;;;;;;16.65;8.95;;;;;;;29.94;100.00;101637.72;5011469;28;20049;-58
2023/07/09 08:00:57;;;;;;;13.63;8.10;;;;;;;30.10;100.00;101625.59;5010071;28;20073;-58
2023/07/09 08:03:28;;;;;;;12.23;7.43;;;;;;;30.32;100.00;101627.00;5009973;28;20061;-58
2023/07/09 08:05:57;;;;;;;12.63;7.90;;;;;;;30.32;100.00;101626.16;5014281;28;20057;-58
2023/07/09 08:08:29;;;;;;;10.75;6.85;;;;;;;30.49;100.00;101627.41;5021081;28;20041;-58
2023/07/09 08:11:04;;;;;;;14.55;7.43;;;;;;;30.58;100.00;101619.00;5020406;28;20564;-58
2023/07/09 08:13:34;;;;;;;12.35;7.50;;;;;;;30.73;100.00;101619.56;5027892;28;20052;-58
2023/07/09 08:16:02;;;;;;;11.15;6.90;;;;;;;30.96;100.00;101619.03;5023818;28;20420;-58
2023/07/09 08:18:31;;;;;;;13.55;7.15;;;;;;;30.94;100.00;101628.47;5012667;28;20520;-59
2023/07/09 08:21:01;;;;;;;11.32;6.70;;;;;;;31.18;100.00;101619.56;5020773;28;20589;-58
2023/07/09 08:23:30;;;;;;;14.30;7.07;;;;;;;31.39;100.00;101628.41;5010104;28;20599;-58
2023/07/09 08:26:00;;;;;;;11.82;7.57;;;;;;;31.58;100.00;101636.59;5010508;28;20056;-58
2023/07/09 08:28:29;;;;;;;12.68;7.75;;;;;;;31.74;100.00;101633.41;5017729;28;20053;-58
2023/07/09 08:30:58;;;;;;;9.80;6.75;;;;;;;31.88;100.00;101625.09;5008554;28;20049;-58
2023/07/09 08:33:26;;;;;;;12.20;7.43;;;;;;;32.03;100.00;101626.41;5009396;28;20528;-58
2023/07/09 08:35:55;;;;;;;11.55;7.47;;;;;;;32.31;100.00;101621.53;5010146;28;20045;-58
2023/07/09 08:38:27;;;;;;;11.93;7.35;;;;;;;32.41;100.00;101619.13;5018801;28;20080;-58
2023/07/09 08:41:01;;;;;;;13.32;7.28;;;;;;;32.55;99.05;101621.69;5029622;28;20400;-62
2023/07/09 08:43:50;;;;;;;14.40;7.65;;;;;;;32.58;97.06;101622.06;5015450;28;20060;-60
2023/07/09 08:46:27;;;;;;;14.50;7.95;;;;;;;32.73;96.52;101627.13;5008665;28;20172;-62
2023/07/09 08:48:57;;;;;;;13.73;7.55;;;;;;;32.75;88.46;101630.47;5020284;28;20049;-66
2023/07/09 08:51:37;;;;;;;12.23;7.45;;;;;;;32.84;91.29;101620.91;5009589;28;20517;-64
2023/07/09 08:54:15;;;;;;;12.02;7.63;;;;;;;33.00;88.92;101624.88;5025605;28;20041;-64
2023/07/09 08:56:46;;;;;;;11.27;7.57;;;;;;;33.20;81.94;101619.13;5029187;28;20559;-65
2023/07/09 08:59:18;;;;;;;14.18;7.47;;;;;;;33.43;85.17;101617.56;5015182;28;20049;-64
2023/07/09 09:01:52;;;;;;;14.37;8.07;;;;;;;33.55;77.83;101611.28;5028115;28;20041;-65
2023/07/09 09:04:23;;;;;;;11.23;7.40;;;;;;;33.60;76.76;101612.22;5014869;28;20107;-67
2023/07/09 09:07:00;;;;;;;12.38;7.22;;;;;;;33.47;78.32;101617.91;5029260;28;20049;-62
2023/07/09 09:09:40;;;;;;;14.85;7.50;;;;;;;33.58;82.05;101616.25;5009325;28;20049;-64
2023/07/09 09:12:16;;;;;;;14.02;7.07;;;;;;;33.81;80.98;101612.75;5014156;28;20128;-67
2023/07/09 09:14:47;;;;;;;12.55;7.40;;;;;;;33.96;81.67;101610.34;5015361;28;20046;-66
2023/07/09 09:17:20;;;;;;;11.80;7.47;;;;;;;34.19;76.15;101603.22;5022387;28;20045;-67
2023/07/09 09:19:54;;;;;;;13.30;7.20;;;;;;;34.25;78.06;101601.41;5028366;28;20045;-67
2023/07/09 09:22:26;;;;;;;11.63;6.75;;;;;;;34.31;74.34;101606.78;5016210;28;20042;-67
2023/07/09 09:25:03;;;;;;;13.15;7.22;;;;;;;34.46;70.01;101605.44;5026730;28;20057;-67
2023/07/09 09:27:32;;;;;;;12.98;7.20;;;;;;;34.52;71.89;101602.56;5012190;28;20478;-66
2023/07/09 09:30:00;;;;;;;9.88;6.40;;;;;;;34.47;67.05;101602.47;5009103;28;20488;-57
2023/07/09 09:32:31;;;;;;;11.80;6.47;;;;;;;34.37;68.63;101604.97;5019745;28;20057;-56
2023/07/09 09:34:59;;;;;;;10.45;6.15;;;;;;;34.21;68.24;101603.81;5009816;28;20041;-56
2023/07/09 09:37:29;;;;;;;10.77;6.63;;;;;;;34.25;66.47;101602.25;5017648;28;20041;-57
2023/07/09 09:40:00;;;;;;;11.95;6.35;;;;;;;34.45;67.11;101599.13;5014415;28;20042;-56
2023/07/09 09:42:44;;;;;;;9.88;5.97;;;;;;;34.85;71.99;101600.19;4993088;28;20509;-57
2023/07/09 09:45:16;;;;;;;9.38;6.05;;;;;;;34.87;65.00;101601.59;5006753;28;20046;-57
2023/07/09 09:47:48;;;;;;;11.00;6.55;;;;;;;35.03;63.63;101601.91;5017740;28;20050;-56
2023/07/09 09:50:16;;;;;;;11.85;6.18;;;;;;;34.93;63.64;101594.31;5020659;28;20500;-57
2023/07/09 09:52:46;;;;;;;9.90;5.90;;;;;;;35.12;64.58;101600.38;5008160;28;20046;-56
2023/07/09 09:55:19;;;;;;;9.63;5.90;;;;;;;35.21;61.80;101600.84;5008988;28;20054;-56
2023/07/09 09:57:51;;;;;;;11.75;6.43;;;;;;;35.11;61.77;101608.84;5012303;28;20054;-57
2023/07/09 10:00:23;;;;;;;9.20;5.65;;;;;;;35.02;63.54;101602.97;5012954;28;20058;-57
2023/07/09 10:02:51;;;;;;;10.95;5.85;;;;;;;35.11;62.08;101604.22;5025745;28;20065;-56
2023/07/09 10:05:28;;;;;;;8.52;5.38;;;;;;;35.12;61.39;101605.84;5032421;28;20108;-57
2023/07/09 10:08:01;;;;;;;9.82;5.60;;;;;;;35.63;60.48;101605.91;5021024;28;20050;-57
2023/07/09 10:10:34;;;;;;;12.00;6.25;;;;;;;35.75;61.79;101604.97;5031442;28;20063;-57
2023/07/09 10:13:11;;;;;;;10.73;6.05;;;;;;;35.49;60.21;101602.69;5018128;28;20153;-57
2023/07/09 10:15:44;;;;;;;11.48;6.18;;;;;;;35.47;65.06;101602.09;5012763;28;20159;-57
2023/07/09 10:18:27;;;;;;;10.65;6.07;;;;;;;35.95;61.00;101591.59;5019690;28;20148;-57
2023/07/09 10:21:06;;;;;;;10.60;5.82;;;;;;;36.42;60.43;101584.84;5010695;28;20116;-57
2023/07/09 10:23:40;;;;;;;9.90;5.28;;;;;;;36.36;57.28;101578.47;5027951;28;20523;-57
2023/07/09 10:26:14;;;;;;;9.57;4.97;;;;;;;36.31;55.53;101577.53;5032269;28;20049;-57
2023/07/09 10:29:15;;;;;;;10.85;5.20;;;;;;;36.68;55.44;101574.16;5030771;28;20037;-57
2023/07/09 10:31:50;;;;;;;9.38;5.47;;;;;;;36.73;52.68;101571.44;5030822;28;20073;-56
2023/07/09 10:34:30;;;;;;;10.45;4.70;;;;;;;36.90;51.75;101562.31;5000283;28;20133;-55
2023/07/09 10:37:16;;;;;;;8.98;5.47;;;;;;;36.64;49.63;101568.38;5012195;28;20056;-58
2023/07/09 10:39:50;;;;;;;8.00;5.22;;;;;;;36.66;51.63;101565.34;5007106;28;20636;-57
2023/07/09 10:42:24;;;;;;;9.02;5.38;;;;;;;36.85;53.24;101563.94;5013771;28;20049;-55
2023/07/09 10:44:58;;;;;;;8.43;5.10;;;;;;;36.78;50.65;101565.22;5028739;28;20132;-57
2023/07/09 10:47:38;;;;;;;10.60;5.45;;;;;;;37.14;51.15;101563.66;5028408;28;20050;-55
2023/07/09 10:50:13;;;;;;;8.02;4.70;;;;;;;37.32;47.14;101564.31;5011615;28;20077;-57
2023/07/09 10:52:47;;;;;;;8.98;4.82;;;;;;;37.58;50.54;101564.50;5011927;28;20060;-57
2023/07/09 10:55:19;;;;;;;8.88;4.68;;;;;;;37.57;44.25;101566.44;5021026;28;20045;-57
2023/07/09 10:57:55;;;;;;;9.80;4.70;;;;;;;37.77;45.61;101567.66;5028500;28;20156;-65
2023/07/09 11:00:34;;;;;;;8.30;4.95;;;;;;;37.70;47.20;101562.38;5020736;28;20124;-54
2023/07/09 11:03:09;;;;;;;8.80;4.97;;;;;;;37.90;46.77;101561.69;5013492;28;20444;-55
2023/07/09 11:05:39;;;;;;;9.88;4.53;;;;;;;38.32;46.20;101565.47;5022029;28;20120;-57
2023/07/09 11:08:13;;;;;;;9.68;5.20;;;;;;;38.16;44.91;101572.78;5010161;28;20041;-55
2023/07/09 11:10:50;;;;;;;8.95;4.75;;;;;;;38.39;48.54;101571.50;5024021;28;20400;-56
2023/07/09 11:13:26;;;;;;;8.93;5.13;;;;;;;38.48;45.26;101580.06;5020812;28;20148;-57
2023/07/09 11:16:17;;;;;;;10.60;5.10;;;;;;;38.57;43.16;101575.66;5020539;28;20049;-56
2023/07/09 11:18:57;;;;;;;9.15;5.35;;;;;;;38.78;47.42;101572.97;5020923;28;20440;-56
2023/07/09 11:21:25;;;;;;;8.88;5.05;;;;;;;38.65;45.65;101566.06;5009603;28;20038;-57
2023/07/09 11:23:59;;;;;;;9.30;5.50;;;;;;;38.93;46.36;101558.41;5023511;28;20101;-56
2023/07/09 11:26:29;;;;;;;7.63;5.10;;;;;;;38.78;48.21;101561.97;5020280;28;20077;-56